Terminal Aerodrome Forecast
Issued by NWS

Home | Current Version | Previous Version | Text Only | Print | Product List | Glossary On
Versions: 1 2 3 4 5 6 7 8 9 10 11 12 13 14 15
760
FTUS43 KSGF 100520
TAFBBG
TAF
KBBG 100520Z 1006/1106 31012G19KT P6SM FEW035 FEW250
     FM101000 28005KT P6SM FEW250
     FM101400 22008KT P6SM BKN100
     FM101800 22012G18KT P6SM SKC=

USA.gov is the U.S. government's official web portal to all federal, state and local government web resources and services.